sensor_id;sensor_type;location;lat;lon;timestamp;P1;durP1;ratioP1;P2;durP2;ratioP2
6388;SDS011;3227;42.654;23.360;2023-06-14T00:01:49;11.13;;;7.78;;
6388;SDS011;3227;42.654;23.360;2023-06-14T00:04:16;11.52;;;7.63;;
6388;SDS011;3227;42.654;23.360;2023-06-14T00:06:44;12.32;;;7.82;;
6388;SDS011;3227;42.654;23.360;2023-06-14T00:09:11;12.68;;;7.72;;
6388;SDS011;3227;42.654;23.360;2023-06-14T00:11:40;12.50;;;7.10;;
6388;SDS011;3227;42.654;23.360;2023-06-14T00:14:07;12.55;;;8.27;;
6388;SDS011;3227;42.654;23.360;2023-06-14T00:16:34;12.27;;;7.32;;
6388;SDS011;3227;42.654;23.360;2023-06-14T00:19:02;10.43;;;6.80;;
6388;SDS011;3227;42.654;23.360;2023-06-14T00:21:29;11.73;;;7.35;;
6388;SDS011;3227;42.654;23.360;2023-06-14T00:23:57;11.32;;;6.65;;
6388;SDS011;3227;42.654;23.360;2023-06-14T00:26:29;9.27;;;6.25;;
6388;SDS011;3227;42.654;23.360;2023-06-14T00:28:58;13.32;;;6.80;;
6388;SDS011;3227;42.654;23.360;2023-06-14T00:31:24;13.25;;;6.70;;
6388;SDS011;3227;42.654;23.360;2023-06-14T00:33:51;9.25;;;6.70;;
6388;SDS011;3227;42.654;23.360;2023-06-14T00:36:18;11.30;;;5.70;;
6388;SDS011;3227;42.654;23.360;2023-06-14T00:38:45;9.35;;;5.93;;
6388;SDS011;3227;42.654;23.360;2023-06-14T00:41:11;11.50;;;5.55;;
6388;SDS011;3227;42.654;23.360;2023-06-14T00:43:38;11.02;;;5.78;;
6388;SDS011;3227;42.654;23.360;2023-06-14T00:46:06;12.25;;;5.82;;
6388;SDS011;3227;42.654;23.360;2023-06-14T00:48:33;9.60;;;5.55;;
6388;SDS011;3227;42.654;23.360;2023-06-14T00:51:02;8.07;;;5.30;;
6388;SDS011;3227;42.654;23.360;2023-06-14T00:53:29;8.32;;;5.30;;
6388;SDS011;3227;42.654;23.360;2023-06-14T00:56:14;9.27;;;5.53;;
6388;SDS011;3227;42.654;23.360;2023-06-14T00:58:41;10.65;;;5.22;;
6388;SDS011;3227;42.654;23.360;2023-06-14T01:01:09;11.10;;;5.68;;
6388;SDS011;3227;42.654;23.360;2023-06-14T01:03:36;10.82;;;5.50;;
6388;SDS011;3227;42.654;23.360;2023-06-14T01:06:05;8.15;;;5.63;;
6388;SDS011;3227;42.654;23.360;2023-06-14T01:08:54;8.02;;;5.35;;
6388;SDS011;3227;42.654;23.360;2023-06-14T01:11:29;8.98;;;5.68;;
6388;SDS011;3227;42.654;23.360;2023-06-14T01:13:59;8.25;;;5.65;;
6388;SDS011;3227;42.654;23.360;2023-06-14T01:16:30;9.00;;;5.30;;
6388;SDS011;3227;42.654;23.360;2023-06-14T01:18:59;10.68;;;5.50;;
6388;SDS011;3227;42.654;23.360;2023-06-14T01:21:27;11.55;;;5.45;;
6388;SDS011;3227;42.654;23.360;2023-06-14T01:23:56;8.80;;;5.22;;
6388;SDS011;3227;42.654;23.360;2023-06-14T01:26:23;9.23;;;5.22;;
6388;SDS011;3227;42.654;23.360;2023-06-14T01:28:51;7.97;;;5.28;;
6388;SDS011;3227;42.654;23.360;2023-06-14T01:31:23;9.10;;;5.30;;
6388;SDS011;3227;42.654;23.360;2023-06-14T01:33:51;8.43;;;5.40;;
6388;SDS011;3227;42.654;23.360;2023-06-14T01:39:42;10.65;;;6.15;;
6388;SDS011;3227;42.654;23.360;2023-06-14T01:42:10;8.68;;;5.35;;
6388;SDS011;3227;42.654;23.360;2023-06-14T01:44:39;9.43;;;5.63;;
6388;SDS011;3227;42.654;23.360;2023-06-14T01:47:08;8.88;;;5.75;;
6388;SDS011;3227;42.654;23.360;2023-06-14T01:49:35;10.93;;;5.57;;
6388;SDS011;3227;42.654;23.360;2023-06-14T01:52:02;7.78;;;5.25;;
6388;SDS011;3227;42.654;23.360;2023-06-14T01:54:29;9.57;;;5.28;;
6388;SDS011;3227;42.654;23.360;2023-06-14T01:56:57;11.88;;;5.65;;
6388;SDS011;3227;42.654;23.360;2023-06-14T01:59:24;9.50;;;5.55;;
6388;SDS011;3227;42.654;23.360;2023-06-14T02:01:50;9.77;;;5.30;;
6388;SDS011;3227;42.654;23.360;2023-06-14T02:04:17;8.43;;;5.57;;
6388;SDS011;3227;42.654;23.360;2023-06-14T02:06:44;12.02;;;6.30;;
6388;SDS011;3227;42.654;23.360;2023-06-14T02:09:11;8.35;;;5.28;;
6388;SDS011;3227;42.654;23.360;2023-06-14T02:11:37;12.35;;;5.72;;
6388;SDS011;3227;42.654;23.360;2023-06-14T02:14:06;10.63;;;6.10;;
6388;SDS011;3227;42.654;23.360;2023-06-14T02:16:36;8.88;;;5.30;;
6388;SDS011;3227;42.654;23.360;2023-06-14T02:19:04;8.23;;;5.65;;
6388;SDS011;3227;42.654;23.360;2023-06-14T02:21:30;9.85;;;5.70;;
6388;SDS011;3227;42.654;23.360;2023-06-14T02:23:57;10.13;;;5.53;;
6388;SDS011;3227;42.654;23.360;2023-06-14T02:26:24;8.23;;;5.53;;
6388;SDS011;3227;42.654;23.360;2023-06-14T02:28:54;7.82;;;5.40;;
6388;SDS011;3227;42.654;23.360;2023-06-14T02:31:22;11.65;;;5.60;;
6388;SDS011;3227;42.654;23.360;2023-06-14T02:33:49;8.20;;;5.63;;
6388;SDS011;3227;42.654;23.360;2023-06-14T02:36:16;10.90;;;6.20;;
6388;SDS011;3227;42.654;23.360;2023-06-14T02:38:43;9.02;;;6.25;;
6388;SDS011;3227;42.654;23.360;2023-06-14T02:41:10;10.90;;;5.93;;
6388;SDS011;3227;42.654;23.360;2023-06-14T02:43:37;11.23;;;5.70;;
6388;SDS011;3227;42.654;23.360;2023-06-14T02:46:09;10.05;;;5.32;;
6388;SDS011;3227;42.654;23.360;2023-06-14T02:48:37;10.07;;;5.85;;
6388;SDS011;3227;42.654;23.360;2023-06-14T02:51:05;8.20;;;5.90;;
6388;SDS011;3227;42.654;23.360;2023-06-14T02:53:33;8.20;;;6.32;;
6388;SDS011;3227;42.654;23.360;2023-06-14T02:56:00;12.02;;;6.45;;
6388;SDS011;3227;42.654;23.360;2023-06-14T02:58:28;8.60;;;5.90;;
6388;SDS011;3227;42.654;23.360;2023-06-14T03:00:55;7.85;;;5.65;;
6388;SDS011;3227;42.654;23.360;2023-06-14T03:03:22;8.50;;;5.57;;
6388;SDS011;3227;42.654;23.360;2023-06-14T03:05:51;9.82;;;5.70;;
6388;SDS011;3227;42.654;23.360;2023-06-14T03:08:19;11.02;;;5.70;;
6388;SDS011;3227;42.654;23.360;2023-06-14T03:10:46;9.45;;;5.70;;
6388;SDS011;3227;42.654;23.360;2023-06-14T03:13:13;13.48;;;6.20;;
6388;SDS011;3227;42.654;23.360;2023-06-14T03:15:41;9.60;;;5.45;;
6388;SDS011;3227;42.654;23.360;2023-06-14T03:18:10;11.30;;;5.57;;
6388;SDS011;3227;42.654;23.360;2023-06-14T03:20:37;10.90;;;6.18;;
6388;SDS011;3227;42.654;23.360;2023-06-14T03:23:06;11.18;;;5.78;;
6388;SDS011;3227;42.654;23.360;2023-06-14T03:25:33;12.60;;;6.05;;
6388;SDS011;3227;42.654;23.360;2023-06-14T03:28:00;17.67;;;6.50;;
6388;SDS011;3227;42.654;23.360;2023-06-14T03:30:27;13.55;;;6.20;;
6388;SDS011;3227;42.654;23.360;2023-06-14T03:32:54;8.35;;;6.15;;
6388;SDS011;3227;42.654;23.360;2023-06-14T03:35:21;10.75;;;6.05;;
6388;SDS011;3227;42.654;23.360;2023-06-14T03:37:48;10.05;;;6.40;;
6388;SDS011;3227;42.654;23.360;2023-06-14T03:40:18;11.10;;;6.32;;
6388;SDS011;3227;42.654;23.360;2023-06-14T03:42:46;9.32;;;6.38;;
6388;SDS011;3227;42.654;23.360;2023-06-14T03:45:13;12.27;;;6.05;;
6388;SDS011;3227;42.654;23.360;2023-06-14T03:47:40;9.38;;;6.25;;
6388;SDS011;3227;42.654;23.360;2023-06-14T03:50:07;8.73;;;6.25;;
6388;SDS011;3227;42.654;23.360;2023-06-14T03:52:34;9.32;;;5.75;;
6388;SDS011;3227;42.654;23.360;2023-06-14T03:55:02;11.02;;;6.07;;
6388;SDS011;3227;42.654;23.360;2023-06-14T03:57:30;9.05;;;5.97;;
6388;SDS011;3227;42.654;23.360;2023-06-14T03:59:57;11.13;;;6.18;;
6388;SDS011;3227;42.654;23.360;2023-06-14T04:02:24;8.32;;;5.90;;
6388;SDS011;3227;42.654;23.360;2023-06-14T04:04:53;9.95;;;6.43;;
6388;SDS011;3227;42.654;23.360;2023-06-14T04:07:21;11.50;;;6.82;;
6388;SDS011;3227;42.654;23.360;2023-06-14T04:09:48;12.63;;;6.65;;
6388;SDS011;3227;42.654;23.360;2023-06-14T04:12:15;11.23;;;6.80;;
6388;SDS011;3227;42.654;23.360;2023-06-14T04:14:43;11.27;;;6.03;;
6388;SDS011;3227;42.654;23.360;2023-06-14T04:17:10;11.25;;;6.03;;
6388;SDS011;3227;42.654;23.360;2023-06-14T04:19:37;10.48;;;6.88;;
6388;SDS011;3227;42.654;23.360;2023-06-14T04:22:04;9.70;;;6.28;;
6388;SDS011;3227;42.654;23.360;2023-06-14T04:24:31;13.48;;;6.85;;
6388;SDS011;3227;42.654;23.360;2023-06-14T04:27:00;16.75;;;8.13;;
6388;SDS011;3227;42.654;23.360;2023-06-14T04:29:27;9.73;;;6.57;;
6388;SDS011;3227;42.654;23.360;2023-06-14T04:31:56;11.20;;;5.93;;
6388;SDS011;3227;42.654;23.360;2023-06-14T04:34:25;13.35;;;6.10;;
6388;SDS011;3227;42.654;23.360;2023-06-14T04:36:55;14.23;;;7.70;;
6388;SDS011;3227;42.654;23.360;2023-06-14T04:39:23;9.27;;;5.72;;
6388;SDS011;3227;42.654;23.360;2023-06-14T04:41:51;10.23;;;6.18;;
6388;SDS011;3227;42.654;23.360;2023-06-14T04:44:22;12.35;;;6.03;;
6388;SDS011;3227;42.654;23.360;2023-06-14T04:46:56;14.57;;;6.30;;
6388;SDS011;3227;42.654;23.360;2023-06-14T04:49:23;11.00;;;6.43;;
6388;SDS011;3227;42.654;23.360;2023-06-14T04:51:52;13.10;;;6.72;;
6388;SDS011;3227;42.654;23.360;2023-06-14T04:54:22;11.50;;;6.97;;
6388;SDS011;3227;42.654;23.360;2023-06-14T04:56:50;13.30;;;7.68;;
6388;SDS011;3227;42.654;23.360;2023-06-14T04:59:18;11.82;;;7.18;;
6388;SDS011;3227;42.654;23.360;2023-06-14T05:01:45;21.15;;;9.30;;
6388;SDS011;3227;42.654;23.360;2023-06-14T05:04:14;15.18;;;9.90;;
6388;SDS011;3227;42.654;23.360;2023-06-14T05:06:41;16.13;;;10.98;;
6388;SDS011;3227;42.654;23.360;2023-06-14T05:09:09;15.68;;;10.32;;
6388;SDS011;3227;42.654;23.360;2023-06-14T05:11:36;16.52;;;11.05;;
6388;SDS011;3227;42.654;23.360;2023-06-14T05:14:03;20.67;;;15.88;;
6388;SDS011;3227;42.654;23.360;2023-06-14T05:16:36;24.45;;;19.20;;
6388;SDS011;3227;42.654;23.360;2023-06-14T05:19:04;25.27;;;18.05;;
6388;SDS011;3227;42.654;23.360;2023-06-14T05:21:32;25.10;;;16.25;;
6388;SDS011;3227;42.654;23.360;2023-06-14T05:24:00;19.80;;;15.13;;
6388;SDS011;3227;42.654;23.360;2023-06-14T05:26:27;17.75;;;12.55;;
6388;SDS011;3227;42.654;23.360;2023-06-14T05:28:55;18.83;;;12.40;;
6388;SDS011;3227;42.654;23.360;2023-06-14T05:31:22;15.80;;;12.07;;
6388;SDS011;3227;42.654;23.360;2023-06-14T05:33:49;16.70;;;11.70;;
6388;SDS011;3227;42.654;23.360;2023-06-14T05:36:16;17.80;;;12.60;;
6388;SDS011;3227;42.654;23.360;2023-06-14T05:38:44;16.92;;;11.20;;
6388;SDS011;3227;42.654;23.360;2023-06-14T05:41:12;18.67;;;12.52;;
6388;SDS011;3227;42.654;23.360;2023-06-14T05:43:39;17.17;;;11.30;;
6388;SDS011;3227;42.654;23.360;2023-06-14T05:46:06;15.38;;;11.55;;
6388;SDS011;3227;42.654;23.360;2023-06-14T05:48:32;21.55;;;12.35;;
6388;SDS011;3227;42.654;23.360;2023-06-14T05:50:59;16.10;;;11.98;;
6388;SDS011;3227;42.654;23.360;2023-06-14T05:53:26;18.23;;;11.48;;
6388;SDS011;3227;42.654;23.360;2023-06-14T05:55:54;16.08;;;11.90;;
6388;SDS011;3227;42.654;23.360;2023-06-14T05:58:21;16.08;;;11.60;;
6388;SDS011;3227;42.654;23.360;2023-06-14T06:00:48;18.70;;;11.07;;
6388;SDS011;3227;42.654;23.360;2023-06-14T06:03:15;15.40;;;10.80;;
6388;SDS011;3227;42.654;23.360;2023-06-14T06:05:42;15.30;;;11.45;;
6388;SDS011;3227;42.654;23.360;2023-06-14T06:08:09;17.88;;;11.63;;
6388;SDS011;3227;42.654;23.360;2023-06-14T06:10:35;14.57;;;11.18;;
6388;SDS011;3227;42.654;23.360;2023-06-14T06:13:04;17.38;;;11.50;;
6388;SDS011;3227;42.654;23.360;2023-06-14T06:15:30;18.90;;;11.85;;
6388;SDS011;3227;42.654;23.360;2023-06-14T06:17:57;15.95;;;11.60;;
6388;SDS011;3227;42.654;23.360;2023-06-14T06:20:24;14.25;;;11.57;;
6388;SDS011;3227;42.654;23.360;2023-06-14T06:22:56;18.25;;;12.02;;
6388;SDS011;3227;42.654;23.360;2023-06-14T06:25:23;17.55;;;11.80;;
6388;SDS011;3227;42.654;23.360;2023-06-14T06:27:51;15.05;;;11.55;;
6388;SDS011;3227;42.654;23.360;2023-06-14T06:30:19;16.10;;;11.25;;
6388;SDS011;3227;42.654;23.360;2023-06-14T06:32:46;16.77;;;11.45;;
6388;SDS011;3227;42.654;23.360;2023-06-14T06:35:13;20.17;;;12.80;;
6388;SDS011;3227;42.654;23.360;2023-06-14T06:37:41;18.98;;;12.77;;
6388;SDS011;3227;42.654;23.360;2023-06-14T06:40:08;16.17;;;11.48;;
6388;SDS011;3227;42.654;23.360;2023-06-14T06:42:35;17.35;;;11.88;;
6388;SDS011;3227;42.654;23.360;2023-06-14T06:45:03;19.38;;;12.38;;
6388;SDS011;3227;42.654;23.360;2023-06-14T06:47:31;20.02;;;11.85;;
6388;SDS011;3227;42.654;23.360;2023-06-14T06:49:58;19.63;;;13.43;;
6388;SDS011;3227;42.654;23.360;2023-06-14T06:52:25;19.50;;;12.48;;
6388;SDS011;3227;42.654;23.360;2023-06-14T06:54:52;19.48;;;12.90;;
6388;SDS011;3227;42.654;23.360;2023-06-14T06:57:20;19.17;;;13.27;;
6388;SDS011;3227;42.654;23.360;2023-06-14T06:59:47;21.35;;;13.18;;
6388;SDS011;3227;42.654;23.360;2023-06-14T07:02:14;19.88;;;13.18;;
6388;SDS011;3227;42.654;23.360;2023-06-14T07:04:43;21.10;;;13.63;;
6388;SDS011;3227;42.654;23.360;2023-06-14T07:07:10;18.35;;;13.18;;
6388;SDS011;3227;42.654;23.360;2023-06-14T07:09:36;18.17;;;12.80;;
6388;SDS011;3227;42.654;23.360;2023-06-14T07:12:03;22.95;;;13.27;;
6388;SDS011;3227;42.654;23.360;2023-06-14T07:14:31;19.92;;;12.63;;
6388;SDS011;3227;42.654;23.360;2023-06-14T07:16:58;21.52;;;12.38;;
6388;SDS011;3227;42.654;23.360;2023-06-14T07:19:25;19.45;;;12.85;;
6388;SDS011;3227;42.654;23.360;2023-06-14T07:21:53;19.35;;;12.10;;
6388;SDS011;3227;42.654;23.360;2023-06-14T07:24:20;15.43;;;11.80;;
6388;SDS011;3227;42.654;23.360;2023-06-14T07:26:47;21.63;;;12.63;;
6388;SDS011;3227;42.654;23.360;2023-06-14T07:29:14;18.13;;;12.93;;
6388;SDS011;3227;42.654;23.360;2023-06-14T07:31:41;19.88;;;12.73;;
6388;SDS011;3227;42.654;23.360;2023-06-14T07:34:09;19.58;;;12.20;;
6388;SDS011;3227;42.654;23.360;2023-06-14T07:36:35;24.88;;;14.60;;
6388;SDS011;3227;42.654;23.360;2023-06-14T07:39:04;18.85;;;12.63;;
6388;SDS011;3227;42.654;23.360;2023-06-14T07:41:31;19.50;;;12.75;;
6388;SDS011;3227;42.654;23.360;2023-06-14T07:43:58;21.73;;;12.25;;
6388;SDS011;3227;42.654;23.360;2023-06-14T07:46:25;18.65;;;12.25;;
6388;SDS011;3227;42.654;23.360;2023-06-14T07:48:52;21.85;;;11.88;;
6388;SDS011;3227;42.654;23.360;2023-06-14T07:51:19;17.27;;;11.05;;
6388;SDS011;3227;42.654;23.360;2023-06-14T07:53:47;20.88;;;12.38;;
6388;SDS011;3227;42.654;23.360;2023-06-14T07:56:15;19.35;;;12.23;;
6388;SDS011;3227;42.654;23.360;2023-06-14T07:58:42;16.33;;;11.25;;
6388;SDS011;3227;42.654;23.360;2023-06-14T08:01:09;17.25;;;12.07;;
6388;SDS011;3227;42.654;23.360;2023-06-14T08:03:37;17.30;;;12.45;;
6388;SDS011;3227;42.654;23.360;2023-06-14T08:06:04;17.05;;;12.75;;
6388;SDS011;3227;42.654;23.360;2023-06-14T08:08:31;21.98;;;11.85;;
6388;SDS011;3227;42.654;23.360;2023-06-14T08:10:57;18.95;;;12.48;;
6388;SDS011;3227;42.654;23.360;2023-06-14T08:13:26;15.63;;;12.75;;
6388;SDS011;3227;42.654;23.360;2023-06-14T08:15:52;18.15;;;12.68;;
6388;SDS011;3227;42.654;23.360;2023-06-14T08:18:20;17.02;;;11.95;;
6388;SDS011;3227;42.654;23.360;2023-06-14T08:20:47;15.73;;;11.60;;
6388;SDS011;3227;42.654;23.360;2023-06-14T08:23:14;17.70;;;10.75;;
6388;SDS011;3227;42.654;23.360;2023-06-14T08:25:44;16.15;;;11.25;;
6388;SDS011;3227;42.654;23.360;2023-06-14T08:28:11;14.32;;;11.52;;
6388;SDS011;3227;42.654;23.360;2023-06-14T08:30:39;18.17;;;11.73;;
6388;SDS011;3227;42.654;23.360;2023-06-14T08:33:05;18.92;;;12.07;;
6388;SDS011;3227;42.654;23.360;2023-06-14T08:35:33;16.38;;;11.57;;
6388;SDS011;3227;42.654;23.360;2023-06-14T08:38:02;16.48;;;11.00;;
6388;SDS011;3227;42.654;23.360;2023-06-14T08:40:29;18.13;;;11.88;;
6388;SDS011;3227;42.654;23.360;2023-06-14T08:42:56;15.27;;;11.23;;
6388;SDS011;3227;42.654;23.360;2023-06-14T08:45:24;17.15;;;11.43;;
6388;SDS011;3227;42.654;23.360;2023-06-14T08:47:52;18.63;;;12.15;;
6388;SDS011;3227;42.654;23.360;2023-06-14T08:50:23;13.65;;;10.48;;
6388;SDS011;3227;42.654;23.360;2023-06-14T08:52:55;15.00;;;10.63;;
6388;SDS011;3227;42.654;23.360;2023-06-14T08:55:25;14.07;;;9.90;;
6388;SDS011;3227;42.654;23.360;2023-06-14T08:57:53;13.25;;;9.70;;
6388;SDS011;3227;42.654;23.360;2023-06-14T09:00:22;14.18;;;9.80;;
6388;SDS011;3227;42.654;23.360;2023-06-14T09:02:50;16.27;;;10.48;;
6388;SDS011;3227;42.654;23.360;2023-06-14T09:05:22;14.95;;;9.30;;
6388;SDS011;3227;42.654;23.360;2023-06-14T09:07:49;12.98;;;10.30;;
6388;SDS011;3227;42.654;23.360;2023-06-14T09:10:17;13.95;;;10.02;;
6388;SDS011;3227;42.654;23.360;2023-06-14T09:12:46;15.20;;;10.90;;
6388;SDS011;3227;42.654;23.360;2023-06-14T09:15:13;17.65;;;10.70;;
6388;SDS011;3227;42.654;23.360;2023-06-14T09:17:40;17.67;;;10.30;;
6388;SDS011;3227;42.654;23.360;2023-06-14T09:20:08;16.60;;;10.23;;
6388;SDS011;3227;42.654;23.360;2023-06-14T09:22:37;15.80;;;10.05;;
6388;SDS011;3227;42.654;23.360;2023-06-14T09:25:14;15.60;;;9.98;;
6388;SDS011;3227;42.654;23.360;2023-06-14T09:27:41;17.92;;;11.75;;
6388;SDS011;3227;42.654;23.360;2023-06-14T09:30:09;15.63;;;9.93;;
6388;SDS011;3227;42.654;23.360;2023-06-14T09:32:36;16.85;;;10.70;;
6388;SDS011;3227;42.654;23.360;2023-06-14T09:35:10;20.52;;;10.57;;
6388;SDS011;3227;42.654;23.360;2023-06-14T09:37:38;16.02;;;11.98;;
6388;SDS011;3227;42.654;23.360;2023-06-14T09:40:05;18.58;;;11.85;;
6388;SDS011;3227;42.654;23.360;2023-06-14T09:42:32;14.85;;;11.40;;
6388;SDS011;3227;42.654;23.360;2023-06-14T09:45:02;14.57;;;10.63;;
6388;SDS011;3227;42.654;23.360;2023-06-14T09:47:29;16.00;;;11.38;;
6388;SDS011;3227;42.654;23.360;2023-06-14T09:49:56;17.08;;;10.27;;
6388;SDS011;3227;42.654;23.360;2023-06-14T09:52:24;15.77;;;10.80;;
6388;SDS011;3227;42.654;23.360;2023-06-14T09:54:53;15.95;;;11.20;;
6388;SDS011;3227;42.654;23.360;2023-06-14T09:57:22;14.90;;;11.13;;
6388;SDS011;3227;42.654;23.360;2023-06-14T09:59:52;14.35;;;10.63;;
6388;SDS011;3227;42.654;23.360;2023-06-14T10:02:25;16.30;;;12.00;;
6388;SDS011;3227;42.654;23.360;2023-06-14T10:04:56;14.88;;;11.85;;
6388;SDS011;3227;42.654;23.360;2023-06-14T10:07:26;17.05;;;11.68;;
6388;SDS011;3227;42.654;23.360;2023-06-14T10:09:57;16.27;;;11.45;;
6388;SDS011;3227;42.654;23.360;2023-06-14T10:12:24;21.30;;;10.57;;
6388;SDS011;3227;42.654;23.360;2023-06-14T10:14:52;15.23;;;10.45;;
6388;SDS011;3227;42.654;23.360;2023-06-14T10:17:25;15.70;;;10.07;;
6388;SDS011;3227;42.654;23.360;2023-06-14T10:20:02;16.13;;;9.52;;
6388;SDS011;3227;42.654;23.360;2023-06-14T10:22:43;14.95;;;10.20;;
6388;SDS011;3227;42.654;23.360;2023-06-14T10:25:27;16.42;;;10.43;;
6388;SDS011;3227;42.654;23.360;2023-06-14T10:28:02;16.00;;;11.30;;
6388;SDS011;3227;42.654;23.360;2023-06-14T10:30:30;16.48;;;11.10;;
6388;SDS011;3227;42.654;23.360;2023-06-14T10:33:04;16.23;;;10.95;;
6388;SDS011;3227;42.654;23.360;2023-06-14T10:35:31;13.98;;;10.05;;
6388;SDS011;3227;42.654;23.360;2023-06-14T10:38:06;13.38;;;10.15;;
6388;SDS011;3227;42.654;23.360;2023-06-14T10:40:34;13.77;;;10.70;;
6388;SDS011;3227;42.654;23.360;2023-06-14T10:48:43;15.73;;;9.48;;
6388;SDS011;3227;42.654;23.360;2023-06-14T10:51:17;11.85;;;9.20;;
6388;SDS011;3227;42.654;23.360;2023-06-14T10:53:46;12.88;;;9.05;;
6388;SDS011;3227;42.654;23.360;2023-06-14T10:56:25;11.65;;;9.25;;
6388;SDS011;3227;42.654;23.360;2023-06-14T10:58:53;11.85;;;9.02;;
6388;SDS011;3227;42.654;23.360;2023-06-14T11:01:25;13.15;;;9.43;;
6388;SDS011;3227;42.654;23.360;2023-06-14T11:04:03;11.70;;;9.27;;
6388;SDS011;3227;42.654;23.360;2023-06-14T11:06:38;15.25;;;8.88;;
6388;SDS011;3227;42.654;23.360;2023-06-14T11:09:20;12.30;;;8.82;;
6388;SDS011;3227;42.654;23.360;2023-06-14T11:12:10;13.40;;;9.23;;
6388;SDS011;3227;42.654;23.360;2023-06-14T11:14:39;13.48;;;9.60;;
6388;SDS011;3227;42.654;23.360;2023-06-14T11:17:06;19.30;;;8.90;;
6388;SDS011;3227;42.654;23.360;2023-06-14T11:19:32;11.68;;;8.63;;
6388;SDS011;3227;42.654;23.360;2023-06-14T11:21:59;11.35;;;8.82;;
6388;SDS011;3227;42.654;23.360;2023-06-14T11:24:26;13.75;;;9.32;;
6388;SDS011;3227;42.654;23.360;2023-06-14T11:26:53;13.27;;;8.80;;
6388;SDS011;3227;42.654;23.360;2023-06-14T11:29:23;10.98;;;8.60;;
6388;SDS011;3227;42.654;23.360;2023-06-14T11:31:50;13.70;;;8.13;;
6388;SDS011;3227;42.654;23.360;2023-06-14T11:34:17;10.65;;;7.95;;
6388;SDS011;3227;42.654;23.360;2023-06-14T11:39:32;11.63;;;8.48;;
6388;SDS011;3227;42.654;23.360;2023-06-14T11:41:58;11.85;;;7.72;;
6388;SDS011;3227;42.654;23.360;2023-06-14T11:44:27;10.88;;;8.45;;
6388;SDS011;3227;42.654;23.360;2023-06-14T11:46:54;12.82;;;8.25;;
6388;SDS011;3227;42.654;23.360;2023-06-14T11:49:23;13.48;;;7.93;;
6388;SDS011;3227;42.654;23.360;2023-06-14T11:51:50;11.05;;;7.78;;
6388;SDS011;3227;42.654;23.360;2023-06-14T11:54:17;9.52;;;7.35;;
6388;SDS011;3227;42.654;23.360;2023-06-14T11:56:43;10.25;;;7.53;;
6388;SDS011;3227;42.654;23.360;2023-06-14T11:59:10;19.60;;;7.78;;
6388;SDS011;3227;42.654;23.360;2023-06-14T12:01:42;12.48;;;6.75;;
6388;SDS011;3227;42.654;23.360;2023-06-14T12:04:10;10.23;;;6.40;;
6388;SDS011;3227;42.654;23.360;2023-06-14T12:06:37;11.90;;;6.50;;
6388;SDS011;3227;42.654;23.360;2023-06-14T12:09:04;9.00;;;6.43;;
6388;SDS011;3227;42.654;23.360;2023-06-14T12:11:36;10.15;;;6.43;;
6388;SDS011;3227;42.654;23.360;2023-06-14T12:14:03;8.80;;;6.13;;
6388;SDS011;3227;42.654;23.360;2023-06-14T12:16:31;11.48;;;6.22;;
6388;SDS011;3227;42.654;23.360;2023-06-14T12:19:07;11.93;;;6.60;;
6388;SDS011;3227;42.654;23.360;2023-06-14T12:21:36;9.52;;;6.30;;
6388;SDS011;3227;42.654;23.360;2023-06-14T12:24:05;8.95;;;6.40;;
6388;SDS011;3227;42.654;23.360;2023-06-14T12:26:33;8.60;;;6.63;;
6388;SDS011;3227;42.654;23.360;2023-06-14T12:29:00;11.23;;;6.45;;
6388;SDS011;3227;42.654;23.360;2023-06-14T12:31:27;9.95;;;6.45;;
6388;SDS011;3227;42.654;23.360;2023-06-14T12:33:54;14.18;;;6.95;;
6388;SDS011;3227;42.654;23.360;2023-06-14T12:36:23;16.73;;;7.78;;
6388;SDS011;3227;42.654;23.360;2023-06-14T12:38:50;17.85;;;7.18;;
6388;SDS011;3227;42.654;23.360;2023-06-14T12:41:18;12.55;;;6.80;;
6388;SDS011;3227;42.654;23.360;2023-06-14T12:43:46;9.80;;;7.00;;
6388;SDS011;3227;42.654;23.360;2023-06-14T12:46:13;11.43;;;6.68;;
6388;SDS011;3227;42.654;23.360;2023-06-14T12:48:39;9.52;;;6.68;;
6388;SDS011;3227;42.654;23.360;2023-06-14T12:51:06;12.27;;;6.95;;
6388;SDS011;3227;42.654;23.360;2023-06-14T12:53:34;11.18;;;6.75;;
6388;SDS011;3227;42.654;23.360;2023-06-14T12:56:01;11.43;;;6.40;;
6388;SDS011;3227;42.654;23.360;2023-06-14T12:58:28;11.25;;;6.95;;
6388;SDS011;3227;42.654;23.360;2023-06-14T13:00:55;10.32;;;6.50;;
6388;SDS011;3227;42.654;23.360;2023-06-14T13:03:22;11.35;;;6.40;;
6388;SDS011;3227;42.654;23.360;2023-06-14T13:05:48;14.43;;;7.25;;
6388;SDS011;3227;42.654;23.360;2023-06-14T13:08:15;8.55;;;6.38;;
6388;SDS011;3227;42.654;23.360;2023-06-14T13:10:43;9.88;;;6.32;;
6388;SDS011;3227;42.654;23.360;2023-06-14T13:13:10;11.40;;;7.30;;
6388;SDS011;3227;42.654;23.360;2023-06-14T13:15:43;14.40;;;6.50;;
6388;SDS011;3227;42.654;23.360;2023-06-14T13:18:11;10.07;;;7.20;;
6388;SDS011;3227;42.654;23.360;2023-06-14T13:20:38;10.70;;;6.45;;
6388;SDS011;3227;42.654;23.360;2023-06-14T13:23:05;10.32;;;5.97;;
6388;SDS011;3227;42.654;23.360;2023-06-14T13:25:49;11.85;;;7.00;;
6388;SDS011;3227;42.654;23.360;2023-06-14T13:28:16;9.82;;;6.63;;
6388;SDS011;3227;42.654;23.360;2023-06-14T13:30:43;11.73;;;6.88;;
6388;SDS011;3227;42.654;23.360;2023-06-14T13:33:10;14.82;;;7.00;;
6388;SDS011;3227;42.654;23.360;2023-06-14T13:35:37;10.40;;;6.82;;
6388;SDS011;3227;42.654;23.360;2023-06-14T13:38:03;12.15;;;7.65;;
6388;SDS011;3227;42.654;23.360;2023-06-14T13:40:30;12.32;;;7.80;;
6388;SDS011;3227;42.654;23.360;2023-06-14T13:42:58;17.48;;;6.85;;
6388;SDS011;3227;42.654;23.360;2023-06-14T13:45:25;13.20;;;7.55;;
6388;SDS011;3227;42.654;23.360;2023-06-14T13:47:52;11.77;;;7.22;;
6388;SDS011;3227;42.654;23.360;2023-06-14T13:50:20;10.57;;;6.60;;
6388;SDS011;3227;42.654;23.360;2023-06-14T13:52:46;11.77;;;7.38;;
6388;SDS011;3227;42.654;23.360;2023-06-14T13:55:13;12.13;;;7.30;;
6388;SDS011;3227;42.654;23.360;2023-06-14T13:57:40;12.52;;;7.03;;
6388;SDS011;3227;42.654;23.360;2023-06-14T14:00:09;13.82;;;7.72;;
6388;SDS011;3227;42.654;23.360;2023-06-14T14:02:37;12.93;;;7.88;;
6388;SDS011;3227;42.654;23.360;2023-06-14T14:05:05;11.25;;;6.97;;
6388;SDS011;3227;42.654;23.360;2023-06-14T14:07:32;12.10;;;7.10;;
6388;SDS011;3227;42.654;23.360;2023-06-14T14:09:59;11.82;;;6.90;;
6388;SDS011;3227;42.654;23.360;2023-06-14T14:12:26;11.63;;;7.07;;
6388;SDS011;3227;42.654;23.360;2023-06-14T14:14:53;11.50;;;7.38;;
6388;SDS011;3227;42.654;23.360;2023-06-14T14:17:22;16.63;;;8.40;;
6388;SDS011;3227;42.654;23.360;2023-06-14T14:19:49;10.10;;;6.30;;
6388;SDS011;3227;42.654;23.360;2023-06-14T14:22:16;10.80;;;7.07;;
6388;SDS011;3227;42.654;23.360;2023-06-14T14:24:43;10.27;;;6.88;;
6388;SDS011;3227;42.654;23.360;2023-06-14T14:27:09;11.45;;;7.72;;
6388;SDS011;3227;42.654;23.360;2023-06-14T14:29:36;10.82;;;6.53;;
6388;SDS011;3227;42.654;23.360;2023-06-14T14:32:04;10.30;;;6.50;;
6388;SDS011;3227;42.654;23.360;2023-06-14T14:34:32;10.27;;;6.22;;
6388;SDS011;3227;42.654;23.360;2023-06-14T14:36:59;12.73;;;8.40;;
6388;SDS011;3227;42.654;23.360;2023-06-14T14:39:26;9.95;;;7.10;;
6388;SDS011;3227;42.654;23.360;2023-06-14T14:41:53;10.18;;;7.13;;
6388;SDS011;3227;42.654;23.360;2023-06-14T14:44:19;11.15;;;8.15;;
6388;SDS011;3227;42.654;23.360;2023-06-14T14:46:46;12.05;;;7.95;;
6388;SDS011;3227;42.654;23.360;2023-06-14T14:49:13;12.93;;;8.02;;
6388;SDS011;3227;42.654;23.360;2023-06-14T14:51:41;12.63;;;7.70;;
6388;SDS011;3227;42.654;23.360;2023-06-14T14:54:08;13.73;;;7.72;;
6388;SDS011;3227;42.654;23.360;2023-06-14T14:56:35;11.00;;;7.32;;
6388;SDS011;3227;42.654;23.360;2023-06-14T14:59:03;13.65;;;8.60;;
6388;SDS011;3227;42.654;23.360;2023-06-14T15:01:30;13.77;;;8.52;;
6388;SDS011;3227;42.654;23.360;2023-06-14T15:03:57;13.98;;;8.45;;